createdAt,value
2018-11-22T00:00:24.679Z,89.03
2018-11-22T00:02:55.026Z,86.60
2018-11-22T00:05:23.928Z,87.88
2018-11-22T00:08:02.618Z,88.83
2018-11-22T00:10:32.608Z,80.70
2018-11-22T00:13:01.533Z,87.15
2018-11-22T00:15:30.465Z,90.80
2018-11-22T00:18:00.018Z,87.40
2018-11-22T00:20:29.304Z,90.42
2018-11-22T00:22:58.233Z,78.83
2018-11-22T00:25:27.143Z,95.70
2018-11-22T00:27:56.065Z,88.40
2018-11-22T00:30:26.312Z,87.55
2018-11-22T00:32:55.237Z,87.62
2018-11-22T00:35:24.217Z,84.55
2018-11-22T00:37:53.585Z,91.25
2018-11-22T00:40:23.988Z,85.10
2018-11-22T00:42:53.138Z,93.20
2018-11-22T00:45:26.481Z,81.63
2018-11-22T00:47:55.881Z,79.40
2018-11-22T00:50:24.812Z,78.80
2018-11-22T00:52:53.823Z,81.90
2018-11-22T00:55:24.273Z,80.47
2018-11-22T00:57:53.915Z,84.92
2018-11-22T01:00:24.254Z,81.20
2018-11-22T01:02:53.208Z,78.78
2018-11-22T01:05:23.257Z,85.97
2018-11-22T01:07:52.198Z,83.25
2018-11-22T01:10:22.465Z,79.55
2018-11-22T01:12:52.919Z,87.25
2018-11-22T01:15:21.861Z,82.72
2018-11-22T01:17:50.785Z,83.52
2018-11-22T01:20:21.204Z,85.62
2018-11-22T01:22:51.087Z,85.63
2018-11-22T01:25:20.713Z,84.75
2018-11-22T01:27:49.664Z,87.08
2018-11-22T01:30:19.950Z,88.67
2018-11-22T01:32:50.121Z,85.30
2018-11-22T01:35:20.059Z,85.35
2018-11-22T01:37:49.241Z,88.60
2018-11-22T12:17:42.867Z,84.23
2018-11-22T12:20:12.687Z,81.12
2018-11-22T12:22:43.140Z,78.97
2018-11-22T12:25:14.548Z,78.73
2018-11-22T12:27:44.433Z,82.30
2018-11-22T12:30:15.911Z,82.78
2018-11-22T12:32:46.755Z,78.90
2018-11-22T12:35:21.040Z,80.73
2018-11-22T12:37:55.343Z,82.88
2018-11-22T12:40:24.262Z,84.07
2018-11-22T12:42:53.211Z,85.17
2018-11-22T12:45:22.134Z,82.55
2018-11-22T12:47:51.092Z,79.22
2018-11-22T12:50:20.016Z,80.65
2018-11-22T12:52:48.971Z,80.50
2018-11-22T12:55:17.898Z,88.40
2018-11-22T12:57:46.838Z,92.78
2018-11-22T13:00:16.820Z,84.83
2018-11-22T13:02:45.838Z,88.67
2018-11-22T13:05:16.031Z,86.90
2018-11-22T13:07:45.058Z,85.35
2018-11-22T13:10:15.267Z,83.55
2018-11-22T13:12:45.392Z,87.33
2018-11-22T13:15:15.714Z,84.15
2018-11-22T13:17:44.704Z,84.03
2018-11-22T13:20:15.007Z,85.80
2018-11-22T13:22:43.930Z,80.35
2018-11-22T13:25:16.579Z,77.67
2018-11-22T13:27:45.538Z,79.92
2018-11-22T13:30:16.599Z,78.23
2018-11-22T13:32:46.227Z,80.07
2018-11-22T13:35:16.050Z,82.57
2018-11-22T13:37:46.163Z,87.95
2018-11-22T13:40:15.086Z,80.25
2018-11-22T13:42:44.752Z,85.83
2018-11-22T13:45:15.690Z,81.75
2018-11-22T13:47:45.702Z,80.55
2018-11-22T13:50:18.290Z,81.90
2018-11-22T13:52:48.590Z,84.87
2018-11-22T13:55:17.518Z,81.00
2018-11-22T13:57:46.461Z,82.80
2018-11-22T14:00:18.682Z,83.22
2018-11-22T14:02:49.195Z,82.80
2018-11-22T14:05:18.119Z,80.05
2018-11-22T14:07:47.063Z,76.67
2018-11-22T14:10:17.478Z,82.37
2018-11-22T14:12:46.409Z,83.72
2018-11-22T14:15:23.147Z,79.37
2018-11-22T14:17:53.671Z,85.62
2018-11-22T14:20:24.199Z,87.02
2018-11-22T14:22:53.145Z,78.52
2018-11-22T14:25:22.103Z,79.35
2018-11-22T14:27:51.592Z,72.47
2018-11-22T14:30:21.881Z,79.50
2018-11-22T14:32:51.619Z,71.35
2018-11-22T14:35:21.307Z,83.00
2018-11-22T14:37:50.218Z,76.53
2018-11-22T14:40:20.507Z,73.10
2018-11-22T14:42:50.136Z,77.55
2018-11-22T14:45:19.067Z,77.78
2018-11-22T14:47:49.142Z,72.40
2018-11-22T14:50:22.957Z,81.37
2018-11-22T14:52:55.511Z,76.02
2018-11-22T14:55:24.415Z,80.42
2018-11-22T14:57:53.330Z,76.75
2018-11-22T15:00:22.238Z,76.57
2018-11-22T15:02:51.130Z,82.97
2018-11-22T15:05:20.054Z,74.82
2018-11-22T15:07:48.945Z,82.60
2018-11-22T15:10:17.931Z,74.22
2018-11-22T15:12:47.688Z,81.40
2018-11-22T15:15:19.422Z,82.70
2018-11-22T15:17:48.323Z,83.05
2018-11-22T15:20:18.543Z,91.78
2018-11-22T15:22:48.225Z,84.42
2018-11-22T15:25:18.789Z,89.42
2018-11-22T15:27:47.706Z,107.72
2018-11-22T15:30:18.087Z,98.30
2018-11-22T15:32:46.974Z,87.45
2018-11-22T15:35:17.185Z,94.95
2018-11-22T15:37:46.375Z,130.50
2018-11-22T15:40:17.546Z,119.72
2018-11-22T15:42:48.481Z,105.92
2018-11-22T15:45:17.886Z,104.60
2018-11-22T15:47:47.058Z,105.50
2018-11-22T15:50:18.301Z,112.43
2018-11-22T15:52:47.245Z,111.05
2018-11-22T15:55:21.056Z,114.75
2018-11-22T15:57:47.216Z,114.40
2018-11-22T16:00:20.051Z,108.87
2018-11-22T16:02:49.412Z,121.02
2018-11-22T16:05:19.034Z,120.73
2018-11-22T16:07:47.964Z,119.23
2018-11-22T16:10:26.362Z,117.35
2018-11-22T16:12:50.318Z,96.97
2018-11-22T16:15:52.375Z,119.37
2018-11-22T16:18:21.278Z,124.20
2018-11-22T16:20:50.228Z,128.87
2018-11-22T16:23:19.142Z,121.67
2018-11-22T16:25:48.158Z,126.33
2018-11-22T16:28:17.102Z,116.87
2018-11-22T16:30:46.055Z,119.37
2018-11-22T16:33:14.969Z,127.57
2018-11-22T16:35:43.906Z,109.63
2018-11-22T16:38:12.865Z,113.67
2018-11-22T16:40:41.791Z,111.00
2018-11-22T16:43:10.766Z,126.40
2018-11-22T16:45:39.879Z,126.93
2018-11-22T16:48:10.901Z,139.77
2018-11-22T16:50:40.779Z,133.22
2018-11-22T16:53:10.758Z,129.92
2018-11-22T16:55:39.752Z,146.87
2018-11-22T16:58:08.995Z,129.20
2018-11-22T17:00:39.040Z,127.85
2018-11-22T17:03:09.835Z,136.05
2018-11-22T17:05:38.971Z,130.97
2018-11-22T17:08:08.550Z,124.77
2018-11-22T17:10:37.906Z,123.75
2018-11-22T17:13:07.098Z,130.50
2018-11-22T17:15:37.470Z,138.66
2018-11-22T17:18:07.622Z,135.77
2018-11-22T17:20:36.563Z,142.03
2018-11-22T17:23:06.086Z,139.40
2018-11-22T17:25:35.832Z,128.45
2018-11-22T17:28:06.227Z,126.13
2018-11-22T17:30:37.471Z,116.80
2018-11-22T17:33:06.452Z,100.00
2018-11-22T17:35:35.379Z,103.53
2018-11-22T17:38:05.653Z,91.10
2018-11-22T17:40:37.132Z,91.47
2018-11-22T17:43:06.648Z,92.10
2018-11-22T17:45:51.182Z,91.00
2018-11-22T17:48:20.098Z,89.90
2018-11-22T17:50:49.494Z,97.53
2018-11-22T17:53:18.394Z,102.00
2018-11-22T17:55:47.366Z,99.67
2018-11-22T17:58:16.628Z,104.23
2018-11-22T18:00:48.445Z,107.77
2018-11-22T18:03:17.401Z,107.58
2018-11-22T18:05:46.402Z,114.62
2018-11-22T18:08:15.519Z,115.37
2018-11-22T18:10:44.696Z,112.17
2018-11-22T18:13:13.599Z,123.58
2018-11-22T18:15:47.771Z,120.83
2018-11-22T18:18:16.698Z,132.35
2018-11-22T18:20:45.727Z,142.40
2018-11-22T18:23:14.642Z,147.20
2018-11-22T18:25:44.007Z,135.10
2018-11-22T18:28:12.513Z,147.87
2018-11-22T18:30:41.450Z,157.87
2018-11-22T18:33:10.469Z,134.93
2018-11-22T18:35:39.394Z,171.87
2018-11-22T18:38:08.340Z,154.90
2018-11-22T18:40:38.830Z,152.43
2018-11-22T18:43:07.739Z,164.87
2018-11-22T18:45:39.066Z,168.30
2018-11-22T18:48:09.283Z,173.10
2018-11-22T18:50:38.810Z,175.83
2018-11-22T18:53:07.826Z,158.70
2018-11-22T18:55:36.757Z,170.77
2018-11-22T18:58:06.146Z,160.03
2018-11-22T19:00:36.475Z,140.90
2018-11-22T19:03:07.467Z,171.65
2018-11-22T19:05:36.522Z,153.97
2018-11-22T19:08:05.774Z,154.30
2018-11-22T19:10:36.031Z,125.17
2018-11-22T19:13:06.405Z,129.00
2018-11-22T19:15:37.013Z,121.65
2018-11-22T19:18:06.736Z,124.03
2018-11-22T19:20:37.378Z,135.90
2018-11-22T19:23:07.670Z,128.20
2018-11-22T19:25:37.026Z,129.76
2018-11-22T19:28:06.923Z,129.63
2018-11-22T19:30:38.262Z,131.30
2018-11-22T19:33:08.591Z,130.67
2018-11-22T19:35:39.462Z,131.90
2018-11-22T19:38:08.420Z,124.10
2018-11-22T19:40:38.475Z,126.73
2018-11-22T19:43:08.337Z,124.23
2018-11-22T19:45:38.610Z,131.70
2018-11-22T19:48:07.724Z,122.00
2018-11-22T19:50:36.703Z,114.23
2018-11-22T19:53:07.239Z,121.17
2018-11-22T19:58:25.883Z,113.10
2018-11-22T20:00:54.804Z,119.13
2018-11-22T20:03:23.721Z,116.13
2018-11-22T20:05:52.659Z,122.28
2018-11-22T20:08:21.594Z,110.87
2018-11-22T20:10:50.811Z,115.85
2018-11-22T20:13:19.865Z,118.20
2018-11-22T20:15:48.809Z,120.10
2018-11-22T20:18:17.744Z,130.50
2018-11-22T20:20:49.915Z,118.85
2018-11-22T20:23:21.582Z,121.17
2018-11-22T20:25:44.538Z,120.60
2018-11-22T20:28:13.494Z,127.30
2018-11-22T20:30:43.910Z,124.70
2018-11-22T20:33:12.852Z,125.02
2018-11-22T20:35:41.778Z,128.95
2018-11-22T20:38:10.711Z,131.80
2018-11-22T20:40:39.619Z,129.67
2018-11-22T20:43:09.434Z,119.83
2018-11-22T20:45:40.934Z,126.15
2018-11-22T20:48:07.384Z,123.70
2018-11-22T20:50:36.779Z,123.05
2018-11-22T20:53:06.742Z,122.17
2018-11-22T20:55:36.875Z,123.72
2018-11-22T20:58:06.551Z,133.52
2018-11-22T21:00:39.728Z,129.78
2018-11-22T21:03:09.707Z,131.37
2018-11-22T21:05:39.249Z,128.53
2018-11-22T21:08:08.927Z,140.40
2018-11-22T21:10:38.405Z,134.80
2018-11-22T21:13:07.923Z,134.77
2018-11-22T21:15:37.692Z,138.90
2018-11-22T21:18:08.267Z,135.65
2018-11-22T21:20:39.124Z,147.00
2018-11-22T21:23:08.771Z,142.43
2018-11-22T21:25:38.301Z,146.67
2018-11-22T21:28:08.092Z,138.27
2018-11-22T21:30:39.124Z,144.30
2018-11-22T21:33:09.038Z,135.07
2018-11-22T21:35:38.031Z,141.28
2018-11-22T21:38:07.934Z,135.63
2018-11-22T21:40:36.926Z,138.45
2018-11-22T21:43:05.961Z,142.65
2018-11-22T21:45:35.390Z,147.78
2018-11-22T21:48:04.326Z,144.68
2018-11-22T21:50:33.279Z,134.77
2018-11-22T21:53:02.282Z,127.87
2018-11-22T21:55:31.413Z,134.12
2018-11-22T21:58:01.599Z,134.90
2018-11-22T22:00:36.297Z,127.50
2018-11-22T22:03:07.035Z,129.00
2018-11-22T22:05:36.211Z,125.80
2018-11-22T22:08:05.265Z,132.00
2018-11-22T22:10:34.193Z,128.20
2018-11-22T22:13:03.247Z,134.20
2018-11-22T22:15:33.410Z,126.90
2018-11-22T22:18:02.422Z,117.13
2018-11-22T22:20:32.754Z,117.03
2018-11-22T22:23:01.691Z,123.07
2018-11-22T22:25:30.701Z,109.22
2018-11-22T22:28:00.122Z,116.67
2018-11-22T22:30:30.434Z,117.82
2018-11-22T22:33:00.869Z,117.13
2018-11-22T22:35:29.803Z,109.17
2018-11-22T22:37:58.762Z,106.07
2018-11-22T22:40:28.538Z,102.87
2018-11-22T22:42:58.394Z,95.53
2018-11-22T22:45:28.479Z,96.90
2018-11-22T22:47:57.431Z,88.30
2018-11-22T22:50:27.388Z,89.90
2018-11-22T22:52:57.400Z,89.62
2018-11-22T22:55:26.611Z,93.43
2018-11-22T22:57:55.522Z,89.75
2018-11-22T23:00:30.672Z,82.33
2018-11-22T23:03:01.967Z,87.30
2018-11-22T23:05:31.369Z,90.20
2018-11-22T23:08:00.307Z,88.92
2018-11-22T23:10:29.234Z,87.75
2018-11-22T23:12:59.046Z,96.65
2018-11-22T23:15:28.871Z,98.75
2018-11-22T23:17:57.799Z,99.62
2018-11-22T23:20:30.963Z,103.12
2018-11-22T23:22:59.858Z,108.97
2018-11-22T23:25:29.467Z,112.30
2018-11-22T23:27:58.423Z,112.05
2018-11-22T23:30:29.703Z,122.10
2018-11-22T23:33:00.114Z,112.50
2018-11-22T23:35:29.027Z,114.57
2018-11-22T23:37:58.603Z,111.85
2018-11-22T23:40:28.734Z,102.97
2018-11-22T23:42:57.643Z,98.40
2018-11-22T23:45:27.930Z,98.25
2018-11-22T23:47:56.874Z,93.17
2018-11-22T23:50:27.230Z,87.35
2018-11-22T23:52:57.146Z,87.72
2018-11-22T23:55:26.091Z,85.22
2018-11-22T23:57:55.018Z,82.25
